Time;durP1;ratioP1;P1;durP2;ratioP2;P2;SDS_P1;SDS_P2;PMS_P1;PMS_P2;Temp;Humidity;BMP_temperature;BMP_pressure;BME280_temperature;BME280_humidity;BME280_pressure;Samples;Min_cycle;Max_cycle;Signal;HPM_P1;HPM_P2
2022/12/09 00:01:21;;;;;;;18.42;10.80;;;;;;;8.24;62.73;94825.00;4951792;28;20085;-75
2022/12/09 00:03:47;;;;;;;17.38;10.02;;;;;;;8.22;62.93;94818.44;4968257;28;20077;-75
2022/12/09 00:06:16;;;;;;;19.17;10.75;;;;;;;8.22;62.87;94815.69;4976056;28;20413;-75
2022/12/09 00:08:42;;;;;;;19.48;10.95;;;;;;;8.22;62.78;94829.38;4967916;28;20026;-75
2022/12/09 00:11:07;;;;;;;16.05;9.27;;;;;;;8.23;62.68;94831.69;4984188;28;20528;-75
2022/12/09 00:13:33;;;;;;;17.65;10.85;;;;;;;8.18;62.88;94837.66;4951757;28;20031;-75
2022/12/09 00:15:58;;;;;;;31.33;16.85;;;;;;;8.09;63.34;94844.94;4984451;28;20030;-75
2022/12/09 00:18:24;;;;;;;26.90;16.27;;;;;;;8.07;63.27;94839.09;5000052;28;20409;-75
2022/12/09 00:20:49;;;;;;;19.17;10.65;;;;;;;8.03;63.56;94838.38;4984071;28;20506;-75
2022/12/09 00:23:15;;;;;;;28.20;16.05;;;;;;;7.98;63.47;94836.94;4983767;28;20086;-75
2022/12/09 00:25:40;;;;;;;20.92;10.85;;;;;;;8.08;63.29;94838.66;4983777;28;20137;-75
2022/12/09 00:28:05;;;;;;;16.98;11.00;;;;;;;7.99;63.51;94835.72;4984351;28;20026;-75
2022/12/09 00:30:31;;;;;;;18.55;10.70;;;;;;;7.98;63.50;94825.97;4983561;28;20023;-75
2022/12/09 00:32:56;;;;;;;25.70;15.25;;;;;;;7.95;63.77;94833.06;4984052;28;20035;-75
2022/12/09 00:35:22;;;;;;;24.58;15.73;;;;;;;8.03;63.77;94850.13;4967099;28;20541;-75
2022/12/09 00:37:47;;;;;;;22.73;14.65;;;;;;;7.98;64.00;94836.94;4969181;28;20030;-75
2022/12/09 00:40:13;;;;;;;21.58;13.57;;;;;;;8.00;63.61;94840.00;4968331;28;20022;-75
2022/12/09 00:42:38;;;;;;;22.13;12.45;;;;;;;8.06;63.79;94854.75;4983573;28;20137;-75
2022/12/09 00:45:04;;;;;;;20.98;12.85;;;;;;;8.13;63.59;94851.09;4968849;28;20034;-75
2022/12/09 00:47:30;;;;;;;20.27;12.23;;;;;;;8.13;63.53;94843.63;4968558;28;20027;-74
2022/12/09 00:49:55;;;;;;;17.65;11.38;;;;;;;8.17;63.40;94838.88;5000006;28;20429;-75
2022/12/09 00:52:20;;;;;;;16.25;10.20;;;;;;;8.19;63.08;94844.69;4967917;28;20482;-75
2022/12/09 00:54:46;;;;;;;16.25;10.07;;;;;;;8.21;63.20;94834.09;4968880;28;20027;-75
2022/12/09 00:57:11;;;;;;;19.95;11.77;;;;;;;8.24;63.04;94833.22;4968316;28;20031;-75
2022/12/09 00:59:37;;;;;;;20.83;11.60;;;;;;;8.26;63.12;94830.09;4968498;28;20031;-75
2022/12/09 01:02:02;;;;;;;17.65;10.85;;;;;;;8.34;62.84;94841.66;4983369;28;20027;-75
2022/12/09 01:04:28;;;;;;;17.95;11.77;;;;;;;8.29;62.94;94833.94;4968109;28;20086;-75
2022/12/09 01:06:53;;;;;;;15.85;10.45;;;;;;;8.28;63.06;94827.69;4968639;28;20078;-75
2022/12/09 01:09:18;;;;;;;19.63;12.48;;;;;;;8.33;62.77;94835.41;4982407;28;20062;-75
2022/12/09 01:11:44;;;;;;;19.45;12.10;;;;;;;8.31;62.84;94837.00;4983298;28;20103;-75
2022/12/09 01:14:09;;;;;;;19.25;10.38;;;;;;;8.33;62.92;94820.94;4968154;28;20038;-75
2022/12/09 01:16:35;;;;;;;16.98;10.85;;;;;;;8.32;62.69;94819.41;4968569;28;20015;-75
2022/12/09 01:19:02;;;;;;;18.02;11.50;;;;;;;8.33;62.77;94827.19;4982780;28;20023;-75
2022/12/09 01:21:28;;;;;;;16.70;10.45;;;;;;;8.32;62.69;94833.09;4966432;28;20038;-75
2022/12/09 01:23:54;;;;;;;17.05;11.00;;;;;;;8.34;62.74;94831.47;4983005;28;20077;-75
2022/12/09 01:26:19;;;;;;;17.33;11.63;;;;;;;8.33;62.43;94838.16;4998803;28;20408;-75
2022/12/09 01:28:45;;;;;;;18.23;11.07;;;;;;;8.33;62.33;94829.94;4968201;28;20073;-75
2022/12/09 01:31:15;;;;;;;20.92;11.55;;;;;;;8.28;62.28;94838.66;4966314;28;20027;-75
2022/12/09 01:33:40;;;;;;;21.13;11.63;;;;;;;8.24;62.69;94838.72;4966440;28;20031;-75
2022/12/09 01:36:07;;;;;;;19.95;10.90;;;;;;;8.28;62.39;94840.63;4966181;28;20130;-75
2022/12/09 01:38:33;;;;;;;17.40;11.50;;;;;;;8.22;62.37;94830.16;4950120;28;20041;-75
2022/12/09 01:40:58;;;;;;;20.02;12.18;;;;;;;8.29;62.32;94831.19;4998347;28;20117;-75
2022/12/09 01:43:24;;;;;;;19.70;12.73;;;;;;;8.20;62.57;94826.28;4967408;28;20023;-75
2022/12/09 01:45:49;;;;;;;20.92;12.55;;;;;;;8.16;62.78;94822.88;4967866;28;20035;-75
2022/12/09 01:48:19;;;;;;;22.17;14.93;;;;;;;8.14;62.43;94820.56;4998634;28;20027;-75
2022/12/09 01:50:55;;;;;;;23.25;14.45;;;;;;;8.19;62.58;94824.75;4965808;28;20052;-75
2022/12/09 01:53:23;;;;;;;22.27;14.68;;;;;;;8.19;62.39;94828.25;4965931;28;20035;-75
2022/12/09 01:55:49;;;;;;;22.25;14.18;;;;;;;8.18;62.45;94829.44;4966043;28;20046;-75
2022/12/09 01:58:14;;;;;;;20.38;12.25;;;;;;;8.21;62.63;94833.31;4998715;28;20030;-75
2022/12/09 02:00:40;;;;;;;22.50;14.63;;;;;;;8.15;62.78;94829.53;4981731;28;20026;-75
2022/12/09 02:03:05;;;;;;;25.17;14.50;;;;;;;8.11;62.66;94826.88;4966310;28;20529;-75
2022/12/09 02:05:31;;;;;;;24.95;14.20;;;;;;;8.08;62.59;94814.00;4998064;28;20031;-74
2022/12/09 02:07:56;;;;;;;22.08;12.70;;;;;;;8.07;62.69;94801.53;4982187;28;20031;-74
2022/12/09 02:10:22;;;;;;;21.17;12.73;;;;;;;8.11;62.80;94804.97;4998352;28;20460;-74
2022/12/09 02:12:53;;;;;;;20.58;13.15;;;;;;;8.02;63.03;94804.75;4981934;28;20039;-74
2022/12/09 02:15:46;;;;;;;21.90;12.88;;;;;;;7.95;62.86;94805.69;4967226;28;20031;-74
2022/12/09 02:18:35;;;;;;;24.53;14.50;;;;;;;7.96;63.32;94803.72;4947202;28;20056;-74
2022/12/09 02:21:08;;;;;;;25.67;15.15;;;;;;;7.94;62.90;94803.38;4963338;28;20130;-74
2022/12/09 02:24:03;;;;;;;27.00;15.70;;;;;;;7.93;63.00;94813.56;4965142;28;20023;-74
2022/12/09 02:27:02;;;;;;;25.83;15.75;;;;;;;7.91;62.83;94810.47;4965837;28;20045;-74
2022/12/09 02:29:50;;;;;;;26.58;14.75;;;;;;;7.92;63.22;94806.53;4963793;28;20034;-76
2022/12/09 02:32:30;;;;;;;25.08;14.38;;;;;;;7.90;63.33;94800.69;4967501;28;20035;-76
2022/12/09 02:35:08;;;;;;;22.08;13.18;;;;;;;7.78;63.78;94801.34;4967124;28;20038;-74
2022/12/09 02:37:58;;;;;;;23.38;14.25;;;;;;;7.81;63.65;94811.47;4964997;28;20031;-76
2022/12/09 02:40:29;;;;;;;24.60;14.75;;;;;;;7.83;63.67;94811.81;4949380;28;20023;-76
2022/12/09 02:42:55;;;;;;;25.88;15.13;;;;;;;7.80;63.58;94811.84;4981341;28;20508;-74
2022/12/09 02:45:20;;;;;;;23.58;13.90;;;;;;;7.83;63.62;94816.50;4981668;28;20019;-75
2022/12/09 02:47:47;;;;;;;28.63;17.45;;;;;;;7.77;63.69;94824.44;4981677;28;20035;-75
2022/12/09 02:50:14;;;;;;;25.20;15.93;;;;;;;7.77;63.76;94821.69;4965431;28;20115;-75
2022/12/09 02:52:40;;;;;;;27.42;15.98;;;;;;;7.79;63.68;94822.03;4949373;28;20038;-74
2022/12/09 02:55:06;;;;;;;24.95;14.90;;;;;;;7.72;63.99;94820.22;4965701;28;20031;-73
2022/12/09 02:57:32;;;;;;;24.48;14.25;;;;;;;7.73;64.27;94821.75;4965439;28;20038;-74
2022/12/09 02:59:57;;;;;;;21.20;13.77;;;;;;;7.70;65.01;94833.56;4949419;28;20072;-74
2022/12/09 03:02:28;;;;;;;22.92;13.77;;;;;;;7.75;64.51;94828.78;4966962;28;20046;-76
2022/12/09 03:05:15;;;;;;;28.45;15.27;;;;;;;7.69;64.60;94823.81;4933923;28;20086;-75
2022/12/09 03:07:46;;;;;;;23.40;14.55;;;;;;;7.68;64.54;94819.53;4949112;28;20027;-74
2022/12/09 03:10:15;;;;;;;21.58;14.02;;;;;;;7.72;64.43;94822.97;4965832;28;20062;-74
2022/12/09 03:12:42;;;;;;;22.10;13.85;;;;;;;7.68;64.74;94833.22;4965585;28;20110;-75
2022/12/09 03:15:07;;;;;;;22.73;14.43;;;;;;;7.73;64.55;94824.50;4949461;28;20386;-75
2022/12/09 03:17:33;;;;;;;20.63;13.15;;;;;;;7.75;64.50;94837.00;4949254;28;20070;-76
2022/12/09 03:20:07;;;;;;;23.23;14.32;;;;;;;7.73;64.49;94832.69;4966105;28;20027;-75
2022/12/09 03:22:33;;;;;;;21.42;13.40;;;;;;;7.77;64.42;94834.63;4965681;28;20027;-75
2022/12/09 03:25:08;;;;;;;20.30;12.85;;;;;;;7.81;64.17;94816.16;4949336;28;20023;-76
2022/12/09 03:27:37;;;;;;;18.50;12.40;;;;;;;7.81;64.05;94819.66;4966329;28;20039;-75
2022/12/09 03:30:03;;;;;;;19.55;12.45;;;;;;;7.77;64.20;94816.22;4965468;28;20035;-75
2022/12/09 03:32:28;;;;;;;19.23;12.55;;;;;;;7.77;64.07;94816.22;4966050;28;20043;-75
2022/12/09 03:34:58;;;;;;;22.95;12.02;;;;;;;7.77;63.97;94818.19;4952442;28;20445;-75
2022/12/09 03:37:23;;;;;;;18.50;11.57;;;;;;;7.81;63.97;94803.25;4951908;28;20031;-75
2022/12/09 03:39:50;;;;;;;18.08;11.15;;;;;;;7.75;64.22;94809.66;4968359;28;20034;-75
2022/12/09 03:42:18;;;;;;;19.52;12.32;;;;;;;7.69;64.33;94812.88;4952539;28;20114;-75
2022/12/09 03:44:55;;;;;;;20.77;11.70;;;;;;;7.75;64.39;94804.16;4968683;28;20094;-75
2022/12/09 03:47:20;;;;;;;22.67;11.95;;;;;;;7.73;64.18;94801.84;4969103;28;20026;-75
2022/12/09 03:49:46;;;;;;;20.92;11.75;;;;;;;7.71;64.61;94817.91;4952358;28;20049;-74
2022/12/09 03:52:16;;;;;;;21.95;11.32;;;;;;;7.67;64.69;94807.03;4969371;28;20441;-75
2022/12/09 03:54:45;;;;;;;18.15;11.73;;;;;;;7.67;64.52;94806.25;4936032;28;20035;-75
2022/12/09 03:57:12;;;;;;;22.92;12.23;;;;;;;7.65;64.64;94817.63;4968670;28;20078;-74
2022/12/09 03:59:37;;;;;;;24.80;12.82;;;;;;;7.65;64.71;94812.16;4952244;28;20039;-74
2022/12/09 04:02:05;;;;;;;21.10;12.80;;;;;;;7.62;65.00;94814.94;4951893;28;20034;-75
2022/12/09 04:04:31;;;;;;;16.92;11.45;;;;;;;7.66;64.98;94818.41;4968348;28;20167;-74
2022/12/09 04:06:56;;;;;;;21.90;12.25;;;;;;;7.64;64.93;94821.56;4984088;28;20040;-75
2022/12/09 04:09:22;;;;;;;21.52;12.55;;;;;;;7.59;65.18;94815.81;4968128;28;20033;-74
2022/12/09 04:11:47;;;;;;;26.45;16.13;;;;;;;7.68;64.79;94816.00;4951556;28;20027;-74
2022/12/09 04:14:13;;;;;;;28.13;18.20;;;;;;;7.62;64.92;94823.94;4969306;28;20374;-75
2022/12/09 04:16:38;;;;;;;28.10;18.13;;;;;;;7.65;64.64;94805.91;4969264;28;20509;-75
2022/12/09 04:19:03;;;;;;;31.30;18.90;;;;;;;7.60;64.68;94811.88;4951460;28;20493;-75
2022/12/09 04:21:29;;;;;;;30.58;18.52;;;;;;;7.63;64.65;94822.75;4951971;28;20038;-75
2022/12/09 04:23:54;;;;;;;32.63;20.50;;;;;;;7.63;64.38;94822.75;4951666;28;20042;-75
2022/12/09 04:26:21;;;;;;;35.53;20.83;;;;;;;7.59;64.60;94826.75;4951860;28;20038;-75
2022/12/09 04:28:46;;;;;;;29.15;19.33;;;;;;;7.58;64.75;94819.75;4967938;28;20029;-75
2022/12/09 04:31:12;;;;;;;36.08;19.75;;;;;;;7.49;64.97;94814.81;4951373;28;20035;-75
2022/12/09 04:33:38;;;;;;;42.60;21.23;;;;;;;7.46;64.98;94823.88;4951470;28;20023;-75
2022/12/09 04:36:08;;;;;;;38.75;22.23;;;;;;;7.55;64.85;94818.59;4983459;28;20086;-75
2022/12/09 04:38:33;;;;;;;40.40;22.60;;;;;;;7.56;65.18;94822.09;4967574;28;20031;-76
2022/12/09 04:40:59;;;;;;;35.42;20.92;;;;;;;7.58;65.01;94823.25;4967130;28;20058;-76
2022/12/09 04:43:25;;;;;;;36.40;21.77;;;;;;;7.59;64.72;94822.03;4966914;28;20038;-75
2022/12/09 04:45:50;;;;;;;33.22;20.35;;;;;;;7.60;64.75;94809.13;4968256;28;20065;-75
2022/12/09 04:48:16;;;;;;;28.55;18.95;;;;;;;7.66;64.50;94818.41;4983580;28;20030;-76
2022/12/09 04:50:41;;;;;;;30.98;19.08;;;;;;;7.68;64.77;94825.00;4968373;28;20047;-74
2022/12/09 04:53:06;;;;;;;29.98;16.92;;;;;;;7.67;64.85;94828.16;4968549;28;20035;-74
2022/12/09 04:55:32;;;;;;;31.10;18.17;;;;;;;7.64;64.90;94834.47;4968398;28;20023;-74
2022/12/09 04:57:57;;;;;;;32.40;19.13;;;;;;;7.58;64.92;94819.75;4968496;28;20027;-74
2022/12/09 05:00:23;;;;;;;32.22;18.38;;;;;;;7.60;65.04;94829.06;4968323;28;20022;-74
2022/12/09 05:02:48;;;;;;;29.33;18.25;;;;;;;7.65;64.75;94828.56;4968530;28;20035;-75
2022/12/09 05:05:14;;;;;;;30.23;19.23;;;;;;;7.66;64.99;94824.63;4950842;28;20545;-74
2022/12/09 05:07:39;;;;;;;29.42;17.85;;;;;;;7.59;64.92;94833.00;4968402;28;20027;-75
2022/12/09 05:10:05;;;;;;;29.77;17.98;;;;;;;7.62;65.24;94829.41;4968559;28;20033;-75
2022/12/09 05:12:31;;;;;;;25.40;16.08;;;;;;;7.64;65.06;94824.28;4950853;28;20030;-75
2022/12/09 05:14:57;;;;;;;29.75;18.42;;;;;;;7.63;64.87;94828.22;4967539;28;20516;-75
2022/12/09 05:17:23;;;;;;;28.55;17.13;;;;;;;7.65;64.81;94825.84;4968006;28;20035;-75
2022/12/09 05:19:48;;;;;;;31.02;18.67;;;;;;;7.60;65.24;94820.09;4966727;28;20405;-75
2022/12/09 05:22:16;;;;;;;35.67;22.23;;;;;;;7.59;65.27;94822.03;4950488;28;20031;-75
2022/12/09 05:24:43;;;;;;;34.38;20.25;;;;;;;7.64;65.04;94820.78;4982768;28;20436;-75
2022/12/09 05:27:08;;;;;;;38.55;25.48;;;;;;;7.62;64.85;94823.94;4968185;28;20595;-75
2022/12/09 05:29:34;;;;;;;45.88;29.02;;;;;;;7.60;64.86;94818.13;4950344;28;20026;-75
2022/12/09 05:31:59;;;;;;;36.28;25.05;;;;;;;7.59;65.12;94821.28;4968107;28;20027;-75
2022/12/09 05:34:25;;;;;;;32.30;20.17;;;;;;;7.64;64.88;94826.25;4967484;28;20029;-75
2022/12/09 05:36:50;;;;;;;30.88;19.08;;;;;;;7.57;65.09;94843.59;4982547;28;20023;-76
2022/12/09 05:39:16;;;;;;;26.85;16.73;;;;;;;7.58;64.91;94845.13;4950176;28;20038;-75
2022/12/09 05:41:42;;;;;;;24.27;14.85;;;;;;;7.64;64.73;94839.94;4950127;28;20023;-75
2022/12/09 05:44:10;;;;;;;23.48;13.95;;;;;;;7.66;64.73;94848.50;4950512;28;20038;-75
2022/12/09 05:46:35;;;;;;;24.58;14.93;;;;;;;7.63;64.72;94852.09;4950103;28;20035;-74
2022/12/09 05:49:01;;;;;;;26.52;15.23;;;;;;;7.64;64.99;94843.44;4950335;28;20084;-75
2022/12/09 05:51:27;;;;;;;24.95;15.02;;;;;;;7.58;64.87;94831.44;4965395;28;20081;-74
2022/12/09 05:53:53;;;;;;;23.23;15.40;;;;;;;7.62;64.93;94837.59;4966428;28;20031;-75
2022/12/09 05:56:19;;;;;;;25.90;16.45;;;;;;;7.64;64.82;94848.91;4981964;28;20122;-75
2022/12/09 05:58:45;;;;;;;26.58;16.50;;;;;;;7.67;64.67;94837.13;4950173;28;20490;-75
2022/12/09 06:01:10;;;;;;;26.00;16.20;;;;;;;7.70;64.86;94841.00;4966105;28;20046;-76
2022/12/09 06:03:36;;;;;;;23.73;15.85;;;;;;;7.69;64.64;94832.03;4965882;28;20022;-76
2022/12/09 06:06:05;;;;;;;25.63;17.02;;;;;;;7.73;64.55;94842.88;4967527;28;20106;-75
2022/12/09 06:08:31;;;;;;;24.80;18.10;;;;;;;7.75;64.54;94829.56;4981737;28;20082;-75
2022/12/09 06:10:56;;;;;;;28.65;19.38;;;;;;;7.73;64.61;94843.66;4950008;28;20035;-76
2022/12/09 06:13:22;;;;;;;33.60;20.92;;;;;;;7.76;64.68;94854.97;4981840;28;20106;-76
2022/12/09 06:15:47;;;;;;;32.65;20.75;;;;;;;7.72;64.72;94842.09;4982319;28;20098;-75
2022/12/09 06:18:13;;;;;;;34.58;21.77;;;;;;;7.74;64.79;94855.38;4982016;28;20035;-76
2022/12/09 06:20:40;;;;;;;36.42;23.25;;;;;;;7.78;64.46;94867.03;4967114;28;20027;-76
2022/12/09 06:23:05;;;;;;;40.05;26.00;;;;;;;7.78;64.66;94869.00;4965887;28;20034;-76
2022/12/09 06:25:30;;;;;;;42.30;26.15;;;;;;;7.78;64.64;94858.03;4949988;28;20053;-77
2022/12/09 06:27:56;;;;;;;44.35;31.02;;;;;;;7.72;65.00;94879.66;4949937;28;20415;-74
2022/12/09 06:30:21;;;;;;;47.40;31.38;;;;;;;7.77;64.83;94859.25;4949518;28;20383;-76
2022/12/09 06:32:47;;;;;;;47.25;32.60;;;;;;;7.80;64.75;94869.34;4982095;28;20425;-76
2022/12/09 06:35:12;;;;;;;59.28;38.40;;;;;;;7.86;64.48;94862.19;4967009;28;20434;-74
2022/12/09 06:37:38;;;;;;;53.30;36.38;;;;;;;7.82;64.45;94856.78;4966799;28;20170;-74
2022/12/09 06:40:04;;;;;;;45.40;30.23;;;;;;;7.86;64.32;94873.16;4967080;28;20045;-74
2022/12/09 06:42:29;;;;;;;51.88;31.58;;;;;;;7.89;64.22;94881.28;4949507;28;20035;-75
2022/12/09 06:44:55;;;;;;;43.95;28.50;;;;;;;7.81;64.44;94882.63;4950084;28;20023;-75
2022/12/09 06:47:20;;;;;;;44.10;28.70;;;;;;;7.79;64.12;94882.25;4966978;28;20019;-74
2022/12/09 06:49:46;;;;;;;44.83;28.38;;;;;;;7.80;64.03;94881.06;4949594;28;20023;-76
2022/12/09 06:52:11;;;;;;;45.78;29.05;;;;;;;7.83;64.05;94880.22;4966458;28;20043;-75
2022/12/09 06:54:36;;;;;;;48.33;30.88;;;;;;;7.88;63.79;94873.50;4981475;28;20038;-75
2022/12/09 06:57:02;;;;;;;43.60;27.17;;;;;;;7.88;63.63;94870.75;4966735;28;20039;-75
2022/12/09 06:59:27;;;;;;;41.53;25.67;;;;;;;7.90;63.80;94874.59;4967026;28;20035;-75
2022/12/09 07:01:53;;;;;;;39.00;23.88;;;;;;;7.96;63.63;94877.63;4981546;28;20035;-74
2022/12/09 07:04:20;;;;;;;39.42;23.75;;;;;;;7.89;63.66;94873.06;4981887;28;20058;-74
2022/12/09 07:06:45;;;;;;;40.13;26.15;;;;;;;7.83;64.24;94884.94;4949409;28;20085;-74
2022/12/09 07:09:15;;;;;;;43.38;26.35;;;;;;;7.75;64.69;94880.78;4952996;28;20102;-75
2022/12/09 07:11:41;;;;;;;36.20;23.70;;;;;;;7.79;64.42;94874.03;4953335;28;20386;-74
2022/12/09 07:14:07;;;;;;;39.15;24.27;;;;;;;7.77;64.69;94879.16;4969030;28;20062;-74
2022/12/09 07:16:33;;;;;;;37.78;25.08;;;;;;;7.87;64.52;94882.91;4985178;28;20123;-75
2022/12/09 07:18:59;;;;;;;37.55;22.88;;;;;;;7.79;64.51;94859.59;4970899;28;20354;-75
2022/12/09 07:21:25;;;;;;;34.10;23.60;;;;;;;7.91;64.67;94878.09;4970389;28;20102;-76
2022/12/09 07:23:50;;;;;;;35.72;24.58;;;;;;;7.87;64.73;94872.72;4984899;28;20408;-75
2022/12/09 07:26:16;;;;;;;34.45;22.65;;;;;;;7.93;64.90;94881.22;4936931;28;20181;-75
2022/12/09 07:28:42;;;;;;;34.63;22.80;;;;;;;7.93;64.85;94873.00;4968893;28;20109;-74
2022/12/09 07:31:24;;;;;;;35.88;23.50;;;;;;;8.03;64.88;94877.50;4968580;28;20037;-76
2022/12/09 07:33:49;;;;;;;33.65;21.45;;;;;;;8.09;64.64;94880.53;4952676;28;20568;-74
2022/12/09 07:36:15;;;;;;;38.58;23.17;;;;;;;8.11;64.63;94883.59;4952643;28;20035;-75
2022/12/09 07:38:40;;;;;;;33.72;20.98;;;;;;;8.23;64.54;94889.19;4969706;28;20050;-75
2022/12/09 07:41:07;;;;;;;32.50;22.92;;;;;;;8.27;64.23;94888.38;4968801;28;20030;-75
2022/12/09 07:43:33;;;;;;;34.75;25.27;;;;;;;8.37;64.31;94888.19;4969053;28;20022;-74
2022/12/09 07:45:59;;;;;;;37.95;24.90;;;;;;;8.46;64.25;94884.84;4968361;28;20434;-74
2022/12/09 07:48:24;;;;;;;35.85;25.75;;;;;;;8.49;64.03;94892.25;4969560;28;20057;-75
2022/12/09 07:50:50;;;;;;;40.00;24.48;;;;;;;8.54;64.08;94882.72;4984526;28;20414;-74
2022/12/09 07:53:15;;;;;;;36.45;25.63;;;;;;;8.61;63.92;94880.63;4969697;28;20502;-74
2022/12/09 07:55:41;;;;;;;39.47;27.40;;;;;;;8.67;63.73;94875.41;4969673;28;20497;-75
2022/12/09 07:58:06;;;;;;;39.58;27.60;;;;;;;8.70;63.87;94875.31;4969809;28;20458;-75
2022/12/09 08:00:31;;;;;;;39.50;25.98;;;;;;;8.78;63.88;94876.72;4984612;28;20427;-75
2022/12/09 08:02:57;;;;;;;39.00;24.95;;;;;;;8.84;63.76;94881.69;4969489;28;20424;-74
2022/12/09 08:05:22;;;;;;;36.60;26.48;;;;;;;8.91;63.69;94878.78;4969327;28;20509;-74
2022/12/09 08:07:48;;;;;;;46.40;30.27;;;;;;;8.96;63.74;94881.00;4952065;28;20043;-74
2022/12/09 08:10:13;;;;;;;51.95;31.52;;;;;;;9.07;63.60;94887.00;4984023;28;20030;-75
2022/12/09 08:12:39;;;;;;;54.78;34.47;;;;;;;9.12;63.37;94878.28;4969387;28;20413;-74
2022/12/09 08:15:04;;;;;;;47.85;29.60;;;;;;;9.20;63.00;94887.84;4969267;28;20031;-75
2022/12/09 08:17:31;;;;;;;47.08;30.23;;;;;;;9.27;62.83;94890.41;4969524;28;20166;-75
2022/12/09 08:19:56;;;;;;;56.20;33.03;;;;;;;9.34;62.76;94888.69;4966384;28;20528;-76
2022/12/09 08:22:22;;;;;;;60.45;37.38;;;;;;;9.41;62.69;94897.53;4967946;28;20023;-79
2022/12/09 08:24:47;;;;;;;55.05;35.40;;;;;;;9.50;62.59;94896.94;4983859;28;20054;-76
2022/12/09 08:27:13;;;;;;;56.30;35.53;;;;;;;9.62;62.29;94893.47;4969290;28;20436;-76
2022/12/09 08:29:38;;;;;;;52.88;34.90;;;;;;;9.81;61.93;94892.59;4984376;28;20461;-76
2022/12/09 08:32:04;;;;;;;52.63;33.38;;;;;;;9.93;61.47;94895.81;4968633;28;20031;-76
2022/12/09 08:34:29;;;;;;;58.28;35.13;;;;;;;10.00;61.39;94885.41;4969164;28;20489;-75
2022/12/09 08:36:55;;;;;;;53.78;33.15;;;;;;;10.10;61.01;94883.59;4967208;28;20030;-74
2022/12/09 08:39:20;;;;;;;52.08;32.58;;;;;;;10.15;60.79;94885.81;4968996;28;20035;-75
2022/12/09 08:41:45;;;;;;;50.17;32.00;;;;;;;10.17;60.71;94899.84;4983470;28;20490;-74
2022/12/09 08:44:15;;;;;;;49.50;30.33;;;;;;;10.23;60.51;94881.66;4968924;28;20497;-76
2022/12/09 08:46:43;;;;;;;47.72;28.55;;;;;;;10.26;60.32;94869.03;4983422;28;20061;-75
2022/12/09 08:49:09;;;;;;;43.70;29.67;;;;;;;10.24;60.44;94863.97;4968328;28;20027;-75
2022/12/09 08:51:34;;;;;;;51.38;29.17;;;;;;;10.39;60.19;94852.59;4951123;28;20051;-73
2022/12/09 08:54:00;;;;;;;44.70;29.17;;;;;;;10.58;59.57;94846.09;4983488;28;20031;-76
2022/12/09 08:56:25;;;;;;;46.95;29.52;;;;;;;10.93;59.03;94844.22;4983541;28;20043;-76
2022/12/09 08:58:51;;;;;;;44.22;29.90;;;;;;;11.52;57.24;94836.41;4968659;28;20566;-76
2022/12/09 09:01:18;;;;;;;45.40;28.42;;;;;;;12.04;56.00;94822.00;4983213;28;20057;-75
2022/12/09 09:03:43;;;;;;;45.20;28.20;;;;;;;12.43;54.92;94814.28;4983296;28;20027;-76
2022/12/09 09:06:09;;;;;;;38.13;25.67;;;;;;;12.83;54.01;94813.53;4950762;28;20467;-76
2022/12/09 09:08:34;;;;;;;42.50;26.95;;;;;;;13.28;52.30;94824.75;4967419;28;20054;-76
2022/12/09 09:11:00;;;;;;;37.70;24.63;;;;;;;13.78;51.05;94811.59;4950633;28;20023;-75
2022/12/09 09:13:25;;;;;;;53.35;27.83;;;;;;;14.17;50.04;94816.66;4968364;28;20027;-76
2022/12/09 09:15:51;;;;;;;46.05;26.98;;;;;;;14.41;49.68;94814.75;4951082;28;20549;-75
2022/12/09 09:18:16;;;;;;;40.80;25.63;;;;;;;14.45;49.57;94803.50;4950770;28;20091;-75
2022/12/09 09:20:45;;;;;;;40.72;22.70;;;;;;;14.67;48.20;94808.84;4983190;28;20030;-76
2022/12/09 09:23:10;;;;;;;36.20;23.27;;;;;;;15.07;47.61;94822.38;4966459;28;20098;-75
2022/12/09 09:25:40;;;;;;;47.90;24.48;;;;;;;15.48;46.70;94806.13;4968162;28;20031;-75
2022/12/09 09:28:06;;;;;;;42.28;24.63;;;;;;;16.26;44.88;94798.59;4950373;28;20022;-75
2022/12/09 09:30:31;;;;;;;37.22;22.63;;;;;;;17.97;41.60;94794.56;4967624;28;20103;-75
2022/12/09 09:32:57;;;;;;;35.50;23.55;;;;;;;19.15;39.62;94785.25;4982568;28;20038;-76
2022/12/09 09:35:22;;;;;;;40.60;21.95;;;;;;;20.07;37.47;94783.97;4967666;28;20027;-76
2022/12/09 09:37:47;;;;;;;40.08;22.08;;;;;;;20.29;36.68;94776.88;4966366;28;20026;-76
2022/12/09 09:40:13;;;;;;;36.28;20.92;;;;;;;20.52;35.56;94767.31;4982818;28;20027;-76
2022/12/09 09:42:44;;;;;;;35.47;20.33;;;;;;;20.54;35.84;94752.84;4966344;28;20090;-76
2022/12/09 09:45:12;;;;;;;39.15;21.08;;;;;;;20.85;35.37;94765.78;4966075;28;20049;-76
2022/12/09 09:48:01;;;;;;;35.03;20.70;;;;;;;21.19;35.17;94770.06;4966532;28;20139;-75
2022/12/09 09:50:31;;;;;;;38.00;23.23;;;;;;;22.07;33.30;94779.97;4949885;28;20139;-75
2022/12/09 09:52:57;;;;;;;37.33;24.63;;;;;;;22.47;33.03;94759.66;4950410;28;20027;-75
2022/12/09 09:55:51;;;;;;;42.53;26.48;;;;;;;23.09;31.78;94769.66;4965912;28;20086;-76
2022/12/09 09:59:06;;;;;;;45.40;27.02;;;;;;;23.75;30.76;94751.41;4966481;28;20069;-75
2022/12/09 10:01:33;;;;;;;42.78;26.85;;;;;;;24.60;29.60;94748.22;4956605;28;20049;-75
2022/12/09 10:04:17;;;;;;;43.42;26.05;;;;;;;23.97;30.38;94730.72;4982065;28;20040;-75
2022/12/09 10:06:48;;;;;;;42.25;26.02;;;;;;;23.67;30.34;94727.25;4968156;28;20056;-75
2022/12/09 10:09:23;;;;;;;40.67;26.73;;;;;;;23.35;30.40;94722.25;4967464;28;20034;-75
2022/12/09 10:12:04;;;;;;;40.10;25.20;;;;;;;22.79;31.34;94719.94;4949900;28;20035;-75
2022/12/09 10:14:51;;;;;;;42.10;23.83;;;;;;;22.39;31.85;94715.94;4981968;28;20588;-75
2022/12/09 10:17:47;;;;;;;44.85;23.58;;;;;;;22.00;32.46;94716.91;4979955;28;20038;-75
2022/12/09 10:20:22;;;;;;;36.38;18.52;;;;;;;21.42;32.86;94697.34;4964493;28;20527;-75
2022/12/09 10:22:51;;;;;;;31.73;17.27;;;;;;;21.01;33.50;94689.56;4965212;28;20442;-75
2022/12/09 10:25:47;;;;;;;40.67;17.45;;;;;;;20.65;33.81;94681.00;4965861;28;20022;-75
2022/12/09 10:28:22;;;;;;;36.95;17.42;;;;;;;20.04;35.12;94676.13;4949547;28;20047;-75
2022/12/09 10:30:48;;;;;;;41.22;16.80;;;;;;;19.62;35.99;94683.41;4950026;28;20035;-75
2022/12/09 10:33:15;;;;;;;37.15;17.63;;;;;;;19.05;36.63;94672.50;4965262;28;20134;-74
2022/12/09 10:35:40;;;;;;;38.95;16.50;;;;;;;18.97;36.97;94672.19;4965900;28;20106;-75
2022/12/09 10:38:11;;;;;;;27.70;15.00;;;;;;;18.41;38.13;94671.84;4949595;28;20035;-75
2022/12/09 10:40:46;;;;;;;33.25;15.23;;;;;;;18.17;38.45;94674.91;4967030;28;20018;-75
2022/12/09 10:46:05;;;;;;;34.85;16.13;;;;;;;17.85;39.17;94659.47;4971051;28;20101;-75
2022/12/09 10:48:33;;;;;;;28.20;14.85;;;;;;;17.65;39.65;94657.44;4985301;28;20079;-75
2022/12/09 10:51:25;;;;;;;53.47;24.80;;;;;;;17.59;40.45;94665.72;4953247;28;20485;-75
2022/12/09 10:54:09;;;;;;;49.63;21.33;;;;;;;17.38;40.77;94659.47;4953325;28;20063;-75
2022/12/09 10:56:35;;;;;;;;;;;;;;;17.07;41.01;94662.88;4971057;28;20035;-75
2022/12/09 10:59:07;;;;;;;28.80;17.75;;;;;;;16.85;41.43;94662.56;4985572;28;19921;-74
2022/12/09 11:01:50;;;;;;;37.38;17.13;;;;;;;16.69;41.98;94664.63;4970411;28;20027;-75
2022/12/09 11:04:27;;;;;;;45.40;21.45;;;;;;;16.91;41.70;94663.41;4970673;28;20026;-73
2022/12/09 11:06:57;;;;;;;45.78;21.27;;;;;;;16.77;42.31;94651.13;4967916;28;20078;-76
2022/12/09 11:09:28;;;;;;;39.63;18.10;;;;;;;16.71;42.21;94645.50;4968432;28;20030;-76
2022/12/09 11:11:53;;;;;;;43.83;18.38;;;;;;;16.55;42.31;94643.22;4984893;28;20034;-76
2022/12/09 11:14:23;;;;;;;41.83;23.10;;;;;;;16.47;42.47;94644.88;4953328;28;20027;-76
2022/12/09 11:16:52;;;;;;;68.97;27.63;;;;;;;16.42;42.91;94638.00;4970398;28;20485;-76
2022/12/09 11:19:31;;;;;;;52.83;20.08;;;;;;;16.30;43.09;94654.97;4968936;28;20489;-76
2022/12/09 11:22:38;;;;;;;35.00;18.05;;;;;;;16.28;43.04;94638.78;4952262;28;20421;-76
2022/12/09 11:25:22;;;;;;;35.67;17.70;;;;;;;16.98;41.95;94629.69;4970049;28;20118;-76
2022/12/09 11:28:03;;;;;;;33.38;16.88;;;;;;;17.14;41.76;94623.56;4969185;28;20106;-74
2022/12/09 11:30:39;;;;;;;36.55;19.30;;;;;;;17.29;41.43;94620.69;4969894;28;20053;-74
2022/12/09 11:33:13;;;;;;;32.05;16.73;;;;;;;17.15;41.44;94629.91;4985129;28;20113;-74